createdAt,value
2017-05-21T00:00:48.619Z,10.24
2017-05-21T00:03:15.462Z,10.45
2017-05-21T00:05:41.832Z,11.20
2017-05-21T00:08:09.767Z,10.38
2017-05-21T00:10:36.777Z,9.84
2017-05-21T00:13:03.911Z,9.94
2017-05-21T00:15:30.875Z,9.82
2017-05-21T00:17:58.057Z,9.91
2017-05-21T00:20:24.577Z,10.20
2017-05-21T00:22:51.067Z,9.94
2017-05-21T00:25:17.434Z,10.29
2017-05-21T00:27:43.789Z,9.91
2017-05-21T00:30:10.137Z,11.36
2017-05-21T00:32:36.469Z,12.26
2017-05-21T00:35:02.853Z,12.23
2017-05-21T00:37:29.233Z,12.17
2017-05-21T00:39:55.580Z,11.63
2017-05-21T00:42:22.716Z,10.64
2017-05-21T00:44:49.792Z,10.93
2017-05-21T00:47:16.304Z,10.11
2017-05-21T00:49:43.355Z,9.98
2017-05-21T00:52:09.690Z,9.70
2017-05-21T00:54:36.044Z,9.25
2017-05-21T00:57:02.407Z,9.58
2017-05-21T00:59:28.804Z,9.71
2017-05-21T01:01:55.182Z,9.67
2017-05-21T01:04:21.543Z,10.26
2017-05-21T01:06:47.879Z,9.47
2017-05-21T01:09:14.216Z,9.56
2017-05-21T01:11:40.564Z,10.44
2017-05-21T01:14:06.991Z,10.14
2017-05-21T01:16:33.340Z,11.22
2017-05-21T01:18:59.698Z,11.39
2017-05-21T01:21:26.854Z,9.41
2017-05-21T01:23:53.261Z,9.32
2017-05-21T01:26:19.625Z,9.32
2017-05-21T01:28:45.959Z,9.51
2017-05-21T01:31:12.326Z,9.29
2017-05-21T01:33:38.690Z,9.95
2017-05-21T01:36:05.080Z,10.65
2017-05-21T01:38:31.445Z,9.85
2017-05-21T01:40:57.827Z,9.92
2017-05-21T01:43:24.226Z,9.52
2017-05-21T01:45:50.633Z,10.33
2017-05-21T01:48:17.038Z,9.32
2017-05-21T01:50:43.469Z,9.68
2017-05-21T01:53:09.814Z,9.79
2017-05-21T01:55:36.170Z,9.91
2017-05-21T01:58:02.520Z,9.74
2017-05-21T02:00:28.863Z,9.89
2017-05-21T02:02:55.270Z,11.01
2017-05-21T02:05:21.621Z,11.31
2017-05-21T02:07:47.966Z,10.28
2017-05-21T02:10:14.328Z,10.36
2017-05-21T02:12:40.680Z,9.04
2017-05-21T02:15:07.046Z,9.54
2017-05-21T02:17:33.989Z,10.10
2017-05-21T02:20:00.338Z,10.05
2017-05-21T02:22:26.690Z,8.75
2017-05-21T02:24:53.054Z,9.55
2017-05-21T02:27:19.517Z,9.58
2017-05-21T02:29:45.892Z,9.72
2017-05-21T02:32:12.242Z,9.11
2017-05-21T02:34:38.595Z,8.72
2017-05-21T02:37:04.941Z,9.28
2017-05-21T02:39:32.073Z,9.92
2017-05-21T02:41:58.435Z,10.50
2017-05-21T02:44:24.818Z,9.67
2017-05-21T02:46:51.158Z,8.69
2017-05-21T02:49:17.515Z,9.59
2017-05-21T02:51:43.882Z,9.19
2017-05-21T02:54:10.212Z,10.08
2017-05-21T02:56:36.608Z,9.22
2017-05-21T02:59:02.993Z,8.47
2017-05-21T03:01:29.349Z,8.29
2017-05-21T03:03:55.679Z,8.58
2017-05-21T03:06:22.045Z,8.03
2017-05-21T03:08:48.503Z,8.19
2017-05-21T03:11:15.159Z,8.16
2017-05-21T03:13:41.501Z,8.34
2017-05-21T03:16:07.839Z,9.10
2017-05-21T03:18:34.203Z,10.84
2017-05-21T03:21:00.551Z,10.31
2017-05-21T03:23:26.910Z,8.57
2017-05-21T03:25:53.289Z,8.13
2017-05-21T03:28:19.651Z,8.37
2017-05-21T03:30:45.982Z,8.43
2017-05-21T03:33:12.358Z,8.24
2017-05-21T03:35:39.178Z,8.21
2017-05-21T03:38:05.553Z,8.99
2017-05-21T03:40:31.905Z,9.82
2017-05-21T03:42:58.268Z,8.50
2017-05-21T03:45:24.721Z,9.80
2017-05-21T03:47:51.071Z,10.55
2017-05-21T03:50:17.415Z,9.96
2017-05-21T03:52:43.773Z,10.30
2017-05-21T03:55:10.134Z,9.19
2017-05-21T03:57:36.518Z,9.81
2017-05-21T04:00:02.923Z,10.31
2017-05-21T04:02:29.426Z,10.07
2017-05-21T04:04:55.822Z,8.44
2017-05-21T04:07:22.173Z,10.18
2017-05-21T04:09:48.547Z,9.18
2017-05-21T04:12:14.913Z,8.49
2017-05-21T04:14:41.256Z,8.28
2017-05-21T04:17:07.735Z,8.99
2017-05-21T04:19:34.085Z,8.51
2017-05-21T04:22:00.437Z,9.54
2017-05-21T04:24:26.790Z,9.49
2017-05-21T04:26:53.154Z,10.22
2017-05-21T04:29:19.542Z,10.96
2017-05-21T04:31:45.918Z,9.87
2017-05-21T04:34:12.259Z,9.29
2017-05-21T04:36:38.911Z,8.87
2017-05-21T04:39:05.251Z,8.53
2017-05-21T04:41:31.672Z,9.44
2017-05-21T04:43:58.019Z,9.56
2017-05-21T04:46:24.360Z,9.07
2017-05-21T04:48:50.711Z,8.71
2017-05-21T04:51:17.046Z,8.78
2017-05-21T04:53:43.405Z,8.80
2017-05-21T04:56:09.743Z,9.27
2017-05-21T04:58:36.081Z,9.27
2017-05-21T05:01:02.447Z,9.54
2017-05-21T05:03:28.793Z,9.53
2017-05-21T05:05:55.186Z,9.37
2017-05-21T05:08:21.553Z,9.87
2017-05-21T05:10:47.958Z,9.98
2017-05-21T05:13:14.296Z,9.70
2017-05-21T05:15:40.664Z,9.81
2017-05-21T05:18:07.026Z,9.90
2017-05-21T05:20:33.431Z,9.94
2017-05-21T05:22:59.782Z,9.96
2017-05-21T05:25:26.224Z,10.09
2017-05-21T05:27:52.555Z,10.31
2017-05-21T05:30:18.874Z,10.22
2017-05-21T05:32:45.218Z,10.69
2017-05-21T05:35:11.587Z,10.69
2017-05-21T05:37:37.954Z,11.27
2017-05-21T05:40:04.302Z,10.84
2017-05-21T05:42:30.634Z,10.69
2017-05-21T05:44:57.024Z,10.74
2017-05-21T05:47:23.357Z,10.89
2017-05-21T05:49:49.714Z,11.27
2017-05-21T05:52:17.186Z,11.07
2017-05-21T05:54:43.535Z,11.18
2017-05-21T05:57:09.940Z,11.28
2017-05-21T05:59:36.306Z,11.71
2017-05-21T06:02:02.664Z,11.62
2017-05-21T06:04:29.011Z,11.62
2017-05-21T06:06:55.376Z,11.58
2017-05-21T06:09:21.719Z,11.91
2017-05-21T06:11:48.071Z,12.08
2017-05-21T06:14:14.445Z,12.11
2017-05-21T06:16:40.797Z,11.93
2017-05-21T06:19:07.130Z,12.24
2017-05-21T06:21:33.483Z,12.18
2017-05-21T06:23:59.872Z,12.26
2017-05-21T06:26:26.254Z,12.47
2017-05-21T06:28:52.615Z,12.58
2017-05-21T06:31:18.985Z,12.43
2017-05-21T06:33:45.343Z,12.67
2017-05-21T06:36:11.719Z,12.54
2017-05-21T06:38:38.083Z,12.58
2017-05-21T06:41:04.453Z,12.55
2017-05-21T06:43:30.824Z,12.71
2017-05-21T06:45:57.176Z,12.84
2017-05-21T06:48:23.524Z,12.99
2017-05-21T06:50:49.921Z,13.23
2017-05-21T06:53:16.305Z,12.99
2017-05-21T06:55:42.654Z,13.37
2017-05-21T06:58:09.017Z,13.70
2017-05-21T07:00:35.379Z,14.00
2017-05-21T07:03:01.760Z,13.56
2017-05-21T07:05:28.120Z,13.66
2017-05-21T07:07:54.505Z,13.96
2017-05-21T07:10:20.874Z,13.87
2017-05-21T07:12:47.257Z,14.17
2017-05-21T07:15:13.606Z,14.18
2017-05-21T07:17:41.240Z,14.47
2017-05-21T07:20:07.560Z,14.25
2017-05-21T07:22:33.890Z,14.60
2017-05-21T07:25:00.221Z,14.46
2017-05-21T07:27:26.564Z,14.48
2017-05-21T07:29:52.905Z,14.50
2017-05-21T07:32:19.249Z,14.58
2017-05-21T07:34:45.577Z,14.72
2017-05-21T07:37:11.911Z,14.87
2017-05-21T07:39:38.251Z,14.84
2017-05-21T07:42:04.593Z,14.90
2017-05-21T07:44:30.937Z,14.78
2017-05-21T07:46:57.293Z,15.09
2017-05-21T07:49:23.643Z,15.15
2017-05-21T07:51:50.001Z,15.42
2017-05-21T07:54:16.323Z,15.30
2017-05-21T07:56:42.675Z,15.31
2017-05-21T07:59:09.046Z,15.53
2017-05-21T08:01:35.367Z,15.56
2017-05-21T08:04:01.700Z,15.42
2017-05-21T08:06:28.067Z,15.52
2017-05-21T08:08:54.434Z,16.51
2017-05-21T08:11:20.818Z,16.69
2017-05-21T08:13:47.168Z,16.24
2017-05-21T08:16:13.543Z,16.82
2017-05-21T08:18:39.898Z,16.68
2017-05-21T08:21:06.230Z,16.73
2017-05-21T08:23:32.573Z,16.80
2017-05-21T08:25:58.935Z,17.11
2017-05-21T08:28:25.282Z,17.25
2017-05-21T08:30:51.627Z,18.33
2017-05-21T08:33:18.423Z,18.39
2017-05-21T08:35:48.749Z,18.12
2017-05-21T08:38:15.859Z,17.69
2017-05-21T08:40:42.223Z,19.26
2017-05-21T08:43:08.620Z,19.27
2017-05-21T08:45:35.014Z,18.67
2017-05-21T08:48:01.366Z,19.78
2017-05-21T08:50:27.734Z,19.44
2017-05-21T08:52:54.971Z,19.08
2017-05-21T08:55:22.197Z,18.65
2017-05-21T08:57:50.254Z,19.10
2017-05-21T09:00:19.571Z,19.78
2017-05-21T09:02:48.713Z,19.94
2017-05-21T09:05:15.993Z,19.58
2017-05-21T09:07:43.635Z,19.16
2017-05-21T09:10:10.864Z,18.68
2017-05-21T09:12:38.308Z,18.65
2017-05-21T09:15:06.315Z,20.03
2017-05-21T09:17:34.490Z,20.15
2017-05-21T09:20:00.895Z,20.31
2017-05-21T09:22:27.245Z,20.60
2017-05-21T09:24:53.578Z,21.12
2017-05-21T09:27:19.932Z,21.03
2017-05-21T09:29:46.315Z,21.02
2017-05-21T09:32:12.666Z,20.83
2017-05-21T09:34:38.994Z,21.65
2017-05-21T09:37:05.361Z,21.79
2017-05-21T09:39:31.744Z,21.87
2017-05-21T09:41:58.092Z,21.86
2017-05-21T09:44:24.444Z,21.69
2017-05-21T09:46:50.807Z,21.26
2017-05-21T09:49:17.164Z,21.24
2017-05-21T09:51:43.487Z,21.11
2017-05-21T09:54:09.849Z,20.73
2017-05-21T09:56:36.228Z,21.22
2017-05-21T09:59:02.625Z,20.86
2017-05-21T10:01:29.005Z,21.47
2017-05-21T10:03:55.364Z,21.52
2017-05-21T10:06:21.768Z,20.97
2017-05-21T10:08:48.126Z,21.30
2017-05-21T10:11:14.482Z,21.57
2017-05-21T10:13:40.849Z,22.02
2017-05-21T10:16:07.187Z,21.50
2017-05-21T10:18:33.560Z,21.25
2017-05-21T10:20:59.925Z,20.58
2017-05-21T10:23:26.321Z,20.73
2017-05-21T10:25:52.690Z,21.34
2017-05-21T10:28:19.065Z,20.91
2017-05-21T10:30:45.424Z,21.51
2017-05-21T10:33:11.792Z,21.40
2017-05-21T10:35:38.136Z,22.17
2017-05-21T10:38:04.465Z,22.62
2017-05-21T10:40:30.888Z,21.95
2017-05-21T10:42:57.222Z,22.46
2017-05-21T10:45:23.597Z,22.05
2017-05-21T10:47:49.948Z,22.54
2017-05-21T10:50:16.322Z,22.24
2017-05-21T10:52:42.654Z,22.31
2017-05-21T10:55:09.001Z,22.27
2017-05-21T10:57:35.350Z,21.79
2017-05-21T11:00:01.704Z,21.26
2017-05-21T11:02:28.072Z,20.90
2017-05-21T11:04:54.440Z,21.68
2017-05-21T11:07:20.829Z,21.36
2017-05-21T11:09:47.173Z,21.63
2017-05-21T11:12:13.545Z,21.20
2017-05-21T11:14:39.869Z,22.22
2017-05-21T11:17:07.465Z,21.41
2017-05-21T11:19:35.500Z,21.49
2017-05-21T11:22:01.859Z,21.60
2017-05-21T11:24:28.202Z,21.09
2017-05-21T11:26:54.605Z,21.32
2017-05-21T11:29:20.960Z,20.87
2017-05-21T11:31:47.302Z,20.78
2017-05-21T11:34:13.667Z,20.79
2017-05-21T11:36:40.052Z,21.02
2017-05-21T11:39:06.375Z,21.55
2017-05-21T11:41:32.721Z,21.92
2017-05-21T11:43:59.055Z,22.04
2017-05-21T11:46:25.399Z,21.91
2017-05-21T11:48:51.749Z,21.74
2017-05-21T11:51:18.212Z,21.72
2017-05-21T11:53:44.572Z,21.03
2017-05-21T11:56:11.087Z,20.69
2017-05-21T11:58:37.476Z,20.88
2017-05-21T12:01:04.311Z,20.97
2017-05-21T12:03:31.369Z,21.01
2017-05-21T12:05:57.752Z,20.92
2017-05-21T12:08:24.082Z,20.99
2017-05-21T12:10:50.684Z,21.13
2017-05-21T12:13:17.030Z,21.08
2017-05-21T12:15:43.353Z,20.99
2017-05-21T12:18:09.671Z,20.72
2017-05-21T12:20:36.336Z,20.96
2017-05-21T12:23:02.645Z,21.17
2017-05-21T12:25:28.984Z,21.16
2017-05-21T12:27:55.346Z,20.85
2017-05-21T12:30:21.765Z,20.79
2017-05-21T12:32:48.073Z,21.19
2017-05-21T12:35:14.425Z,21.19
2017-05-21T12:37:40.790Z,20.94
2017-05-21T12:40:07.105Z,21.19
2017-05-21T12:42:34.128Z,21.20
2017-05-21T12:45:00.522Z,21.44
2017-05-21T12:47:27.090Z,21.15
2017-05-21T12:49:53.589Z,21.20
2017-05-21T12:52:19.950Z,21.00
2017-05-21T12:54:47.028Z,21.36
2017-05-21T12:57:13.329Z,21.18
2017-05-21T12:59:39.822Z,21.14
2017-05-21T13:02:06.407Z,21.12
2017-05-21T13:04:32.835Z,20.98
2017-05-21T13:06:59.241Z,20.93
2017-05-21T13:09:25.720Z,21.27
2017-05-21T13:11:52.124Z,21.30
2017-05-21T13:14:19.188Z,21.88
2017-05-21T13:16:45.494Z,21.80
2017-05-21T13:19:12.457Z,21.94
2017-05-21T13:21:38.813Z,22.40
2017-05-21T13:24:05.180Z,22.33
2017-05-21T13:26:31.598Z,22.27
2017-05-21T13:28:59.139Z,22.38
2017-05-21T13:31:25.474Z,22.25
2017-05-21T13:33:51.986Z,22.24
2017-05-21T13:36:18.541Z,22.59
2017-05-21T13:38:44.878Z,22.79
2017-05-21T13:41:11.197Z,22.54
2017-05-21T13:43:38.178Z,22.54
2017-05-21T13:46:05.293Z,22.88
2017-05-21T13:48:31.826Z,22.68
2017-05-21T13:50:58.632Z,23.17
2017-05-21T13:53:24.949Z,23.24
2017-05-21T13:55:51.426Z,23.29
2017-05-21T13:58:18.064Z,23.29
2017-05-21T14:00:44.414Z,23.70
2017-05-21T14:03:10.749Z,23.23
2017-05-21T14:05:37.622Z,23.00
2017-05-21T14:08:04.101Z,23.66
2017-05-21T14:10:30.450Z,23.15
2017-05-21T14:12:57.007Z,23.33
2017-05-21T14:15:23.678Z,23.59
2017-05-21T14:17:50.015Z,23.74
2017-05-21T14:20:16.506Z,23.07
2017-05-21T14:22:43.359Z,23.90
2017-05-21T14:25:09.689Z,23.40
2017-05-21T14:27:36.027Z,23.83
2017-05-21T14:30:02.553Z,23.37
2017-05-21T14:32:29.275Z,23.57
2017-05-21T14:34:55.626Z,23.51
2017-05-21T14:37:22.139Z,23.86
2017-05-21T14:39:48.882Z,23.24
2017-05-21T14:42:15.392Z,24.14
2017-05-21T14:44:41.721Z,23.82
2017-05-21T14:47:08.081Z,23.75
2017-05-21T14:49:34.400Z,24.07
2017-05-21T14:52:00.737Z,24.25
2017-05-21T14:54:27.077Z,23.73
2017-05-21T14:56:53.411Z,23.59
2017-05-21T14:59:19.734Z,23.79
2017-05-21T15:01:46.081Z,23.71
2017-05-21T15:04:12.409Z,23.61
2017-05-21T15:06:39.261Z,23.67
2017-05-21T15:09:05.582Z,22.82
2017-05-21T15:11:31.950Z,23.43
2017-05-21T15:13:58.338Z,23.10
2017-05-21T15:16:24.697Z,23.16
2017-05-21T15:18:51.109Z,23.01
2017-05-21T15:21:17.469Z,23.00
2017-05-21T15:23:43.799Z,23.18
2017-05-21T15:26:10.194Z,23.24
2017-05-21T15:28:36.500Z,22.72
2017-05-21T15:31:02.843Z,23.25
2017-05-21T15:33:29.167Z,23.58
2017-05-21T15:35:55.487Z,23.50
2017-05-21T15:38:21.912Z,22.98
2017-05-21T15:40:48.279Z,23.36
2017-05-21T15:43:14.592Z,23.29
2017-05-21T15:45:40.976Z,23.44
2017-05-21T15:48:07.325Z,23.49
2017-05-21T15:50:33.694Z,23.44
2017-05-21T15:53:00.051Z,23.38
2017-05-21T15:55:26.400Z,23.43
2017-05-21T15:57:52.745Z,23.81
2017-05-21T16:00:19.088Z,23.82
2017-05-21T16:02:45.999Z,23.53
2017-05-21T16:05:12.349Z,23.90
2017-05-21T16:07:38.710Z,23.46
2017-05-21T16:10:05.052Z,23.35
2017-05-21T16:12:31.372Z,23.20
2017-05-21T16:14:57.701Z,23.31
2017-05-21T16:17:24.010Z,23.32
2017-05-21T16:19:50.386Z,23.30
2017-05-21T16:22:16.750Z,22.85
2017-05-21T16:24:43.071Z,22.72
2017-05-21T16:27:09.502Z,22.64
2017-05-21T16:29:35.864Z,22.64
2017-05-21T16:32:02.220Z,22.90
2017-05-21T16:34:28.532Z,22.71
2017-05-21T16:36:54.865Z,22.65
2017-05-21T16:39:21.254Z,22.73
2017-05-21T16:41:47.694Z,22.55
2017-05-21T16:44:14.056Z,22.23
2017-05-21T16:46:40.390Z,22.39
2017-05-21T16:49:06.729Z,22.36
2017-05-21T16:51:33.056Z,22.00
2017-05-21T16:53:59.371Z,21.96
2017-05-21T16:56:26.128Z,21.96
2017-05-21T16:58:52.489Z,21.88
2017-05-21T17:01:19.010Z,21.77
2017-05-21T17:03:45.334Z,21.86
2017-05-21T17:06:11.667Z,21.56
2017-05-21T17:08:38.072Z,21.55
2017-05-21T17:11:04.437Z,21.75
2017-05-21T17:13:30.763Z,21.59
2017-05-21T17:15:57.134Z,21.67
2017-05-21T17:18:23.504Z,21.68
2017-05-21T17:20:50.313Z,21.59
2017-05-21T17:23:16.669Z,21.51
2017-05-21T17:25:43.156Z,21.17
2017-05-21T17:28:09.531Z,21.41
2017-05-21T17:30:35.908Z,21.39
2017-05-21T17:33:02.287Z,21.38
2017-05-21T17:35:28.659Z,21.10
2017-05-21T17:37:55.016Z,21.16
2017-05-21T17:40:21.368Z,21.15
2017-05-21T17:42:47.733Z,21.07
2017-05-21T17:45:14.099Z,21.12
2017-05-21T17:47:40.471Z,20.87
2017-05-21T17:50:06.859Z,20.62
2017-05-21T17:52:33.190Z,20.64
2017-05-21T17:54:59.534Z,20.59
2017-05-21T17:57:25.987Z,20.60
2017-05-21T17:59:52.350Z,20.60
2017-05-21T18:02:18.698Z,20.50
2017-05-21T18:04:45.112Z,20.59
2017-05-21T18:07:11.446Z,20.40
2017-05-21T18:09:37.885Z,20.33
2017-05-21T18:12:04.292Z,20.32
2017-05-21T18:14:30.813Z,20.19
2017-05-21T18:16:57.218Z,20.10
2017-05-21T18:19:23.611Z,20.09
2017-05-21T18:21:50.021Z,19.96
2017-05-21T18:24:16.416Z,20.01
2017-05-21T18:26:43.116Z,19.88
2017-05-21T18:29:09.444Z,19.75
2017-05-21T18:31:35.852Z,19.61
2017-05-21T18:34:02.195Z,19.78
2017-05-21T18:36:28.536Z,19.71
2017-05-21T18:38:54.899Z,19.63
2017-05-21T18:41:21.302Z,19.56
2017-05-21T18:43:47.688Z,19.30
2017-05-21T18:46:14.038Z,19.27
2017-05-21T18:48:40.451Z,19.12
2017-05-21T18:51:06.843Z,18.63
2017-05-21T18:53:33.179Z,18.95
2017-05-21T18:55:59.555Z,18.80
2017-05-21T18:58:25.997Z,18.48
2017-05-21T19:00:52.381Z,18.53
2017-05-21T19:03:19.322Z,18.63
2017-05-21T19:05:46.047Z,18.39
2017-05-21T19:08:12.489Z,18.21
2017-05-21T19:10:39.109Z,18.13
2017-05-21T19:13:05.568Z,18.26
2017-05-21T19:15:31.968Z,18.33
2017-05-21T19:17:58.512Z,18.60
2017-05-21T19:20:24.888Z,18.51
2017-05-21T19:22:52.977Z,18.33
2017-05-21T19:25:19.857Z,18.59
2017-05-21T19:27:46.215Z,18.70
2017-05-21T19:30:12.571Z,18.38
2017-05-21T19:32:38.940Z,18.47
2017-05-21T19:35:05.319Z,18.42
2017-05-21T19:37:31.706Z,18.05
2017-05-21T19:39:58.045Z,17.89
2017-05-21T19:42:24.384Z,17.74
2017-05-21T19:44:50.742Z,17.13
2017-05-21T19:47:17.096Z,16.93
2017-05-21T19:49:43.470Z,17.03
2017-05-21T19:52:09.847Z,16.86
2017-05-21T19:54:36.252Z,16.62
2017-05-21T19:57:02.620Z,16.29
2017-05-21T19:59:29.389Z,16.07
2017-05-21T20:01:55.733Z,16.32
2017-05-21T20:04:22.077Z,15.73
2017-05-21T20:06:48.407Z,15.77
2017-05-21T20:09:14.739Z,16.42
2017-05-21T20:11:41.045Z,16.59
2017-05-21T20:14:07.440Z,15.97
2017-05-21T20:16:34.219Z,15.75
2017-05-21T20:19:00.617Z,15.72
2017-05-21T20:21:27.023Z,16.12
2017-05-21T20:23:53.422Z,16.26
2017-05-21T20:26:19.908Z,16.03
2017-05-21T20:28:46.302Z,15.69
2017-05-21T20:31:13.235Z,16.43
2017-05-21T20:33:39.577Z,16.66
2017-05-21T20:36:05.969Z,16.52
2017-05-21T20:38:32.333Z,15.95
2017-05-21T20:40:59.039Z,15.85
2017-05-21T20:43:25.416Z,16.05
2017-05-21T20:45:51.808Z,16.23
2017-05-21T20:48:18.208Z,15.83
2017-05-21T20:50:45.240Z,15.89
2017-05-21T20:53:11.570Z,15.72
2017-05-21T20:55:37.961Z,14.61
2017-05-21T20:58:04.313Z,14.92
2017-05-21T21:00:30.684Z,14.92
2017-05-21T21:02:57.046Z,15.27
2017-05-21T21:05:23.432Z,15.20
2017-05-21T21:07:51.108Z,14.59
2017-05-21T21:10:17.532Z,14.53
2017-05-21T21:12:43.878Z,14.35
2017-05-21T21:15:10.689Z,14.38
2017-05-21T21:17:37.057Z,14.35
2017-05-21T21:20:03.520Z,14.52
2017-05-21T21:22:29.910Z,14.05
2017-05-21T21:24:56.751Z,14.19
2017-05-21T21:27:23.272Z,14.05
2017-05-21T21:29:49.635Z,14.33
2017-05-21T21:32:16.025Z,14.01
2017-05-21T21:34:42.385Z,15.23
2017-05-21T21:37:08.740Z,14.95
2017-05-21T21:39:35.134Z,15.19
2017-05-21T21:42:01.466Z,15.71
2017-05-21T21:44:27.814Z,15.85
2017-05-21T21:46:54.139Z,15.29
2017-05-21T21:49:20.523Z,15.10
2017-05-21T21:51:46.873Z,14.37
2017-05-21T21:54:13.244Z,13.92
2017-05-21T21:56:39.610Z,14.03
2017-05-21T21:59:05.964Z,15.79
2017-05-21T22:01:32.297Z,15.91
2017-05-21T22:03:58.665Z,16.22
2017-05-21T22:06:25.619Z,15.41
2017-05-21T22:08:52.041Z,14.55
2017-05-21T22:11:18.363Z,13.67
2017-05-21T22:13:44.706Z,13.70
2017-05-21T22:16:11.059Z,14.49
2017-05-21T22:18:37.388Z,15.07
2017-05-21T22:21:03.948Z,13.84
2017-05-21T22:23:30.284Z,13.73
2017-05-21T22:26:00.942Z,13.23
2017-05-21T22:28:28.085Z,12.93
2017-05-21T22:30:54.502Z,12.75
2017-05-21T22:33:20.835Z,12.62
2017-05-21T22:35:47.193Z,12.61
2017-05-21T22:38:13.594Z,12.73
2017-05-21T22:40:39.938Z,13.30
2017-05-21T22:43:06.271Z,14.14
2017-05-21T22:45:32.612Z,14.93
2017-05-21T22:47:59.106Z,14.28
2017-05-21T22:50:25.923Z,14.30
2017-05-21T22:52:52.814Z,14.84
2017-05-21T22:55:19.693Z,15.34
2017-05-21T22:57:46.519Z,14.16
2017-05-21T23:00:13.243Z,12.74
2017-05-21T23:02:40.095Z,12.13
2017-05-21T23:05:08.421Z,12.33
2017-05-21T23:07:34.933Z,11.97
2017-05-21T23:10:01.898Z,12.61
2017-05-21T23:12:28.428Z,12.20
2017-05-21T23:14:55.128Z,12.24
2017-05-21T23:17:21.493Z,12.94
2017-05-21T23:19:47.858Z,14.14
2017-05-21T23:22:14.551Z,13.73
2017-05-21T23:24:41.128Z,13.89
2017-05-21T23:27:07.491Z,13.13
2017-05-21T23:29:33.899Z,14.15
2017-05-21T23:32:00.265Z,13.87
2017-05-21T23:34:26.638Z,13.37
2017-05-21T23:36:53.012Z,12.38
2017-05-21T23:39:19.385Z,12.62
2017-05-21T23:41:45.742Z,12.02
2017-05-21T23:44:12.096Z,11.61
2017-05-21T23:46:38.482Z,11.77
2017-05-21T23:49:04.842Z,11.77
2017-05-21T23:51:31.222Z,11.84
2017-05-21T23:53:57.613Z,11.70
2017-05-21T23:56:23.982Z,12.34
2017-05-21T23:58:50.784Z,12.67
